Weather at Aeròdrom de Cervera

Public forecast

Using degrees Celsius for public forecast. Weather courtesy of forecast.io.

Closest aviation weather report (METAR) to Aeròdrom de Cervera

Closest report is Lleida-Alguaire Airport, 32.2 nm (59.6 km) W. Retrieved 2020/10/01 03:30 UTC (30 minutes ago):

LEDA 010330Z AUTO 05008KT CAVOK 14/10 Q1010

Closest aviation forecast (TAF) to Aeròdrom de Cervera

Closest forecast is Lleida-Alguaire Airport, 32.2 nm (59.6 km) W. Retrieved 2020-10-01 03:00 UTC (60 minutes ago):

TAF LEDA 010200Z 0103/0203 VRB04KT 9999 FEW020 TX26/0114Z TN13/0105Z PROB40 TEMPO 0103/0106 09007KT BECMG 0110/0112 27012KT BECMG 0118/0120 VRB04KT PROB30 TEMPO 0200/0203 4000 RA SHRA FEW040TCU